createdAt,value
2022-12-09T00:00:38.360Z,2.00
2022-12-09T00:05:41.941Z,2.00
2022-12-09T00:10:45.070Z,2.00
2022-12-09T00:15:47.575Z,2.00
2022-12-09T00:20:50.123Z,2.00
2022-12-09T00:25:52.506Z,2.40
2022-12-09T00:30:58.659Z,2.00
2022-12-09T00:36:20.112Z,2.00
2022-12-09T00:41:23.120Z,1.90
2022-12-09T00:46:26.837Z,1.90
2022-12-09T00:51:29.308Z,1.90
2022-12-09T00:56:32.043Z,1.90
2022-12-09T01:01:35.537Z,1.90
2022-12-09T01:06:38.672Z,2.00
2022-12-09T01:11:41.220Z,2.00
2022-12-09T01:16:44.040Z,2.00
2022-12-09T01:21:46.769Z,2.00
2022-12-09T01:26:49.558Z,2.00
2022-12-09T01:31:53.844Z,1.90
2022-12-09T01:36:56.386Z,1.90
2022-12-09T01:42:02.035Z,1.90
2022-12-09T01:47:04.750Z,1.90
2022-12-09T01:52:19.086Z,1.90
2022-12-09T01:57:22.389Z,1.90
2022-12-09T02:02:28.769Z,1.90
2022-12-09T02:07:32.809Z,1.90
2022-12-09T02:12:54.524Z,1.80
2022-12-09T02:18:01.930Z,1.80
2022-12-09T02:23:11.743Z,1.80
2022-12-09T02:28:42.154Z,1.80
2022-12-09T02:34:03.770Z,1.90
2022-12-09T02:39:07.931Z,1.90
2022-12-09T02:44:21.150Z,1.80
2022-12-09T02:49:26.837Z,1.80
2022-12-09T02:54:33.309Z,1.80
2022-12-09T02:59:35.881Z,1.80
2022-12-09T03:04:41.389Z,1.80
2022-12-09T03:09:52.261Z,1.90
2022-12-09T03:14:57.984Z,1.90
2022-12-09T03:20:26.467Z,1.90
2022-12-09T03:25:34.442Z,1.90
2022-12-09T03:30:41.208Z,1.90
2022-12-09T03:35:50.370Z,1.80
2022-12-09T03:41:17.255Z,1.80
2022-12-09T03:46:21.558Z,1.80
2022-12-09T03:51:56.653Z,1.80
2022-12-09T03:56:59.554Z,1.80
2022-12-09T04:02:04.038Z,1.90
2022-12-09T04:07:07.613Z,1.80
2022-12-09T04:12:11.044Z,2.40
2022-12-09T04:17:13.599Z,1.80
2022-12-09T04:22:16.343Z,1.80
2022-12-09T04:27:18.985Z,1.80
2022-12-09T04:32:22.301Z,1.80
2022-12-09T04:37:25.114Z,2.10
2022-12-09T04:42:29.133Z,1.80
2022-12-09T04:47:34.433Z,1.80
2022-12-09T04:52:36.909Z,1.80
2022-12-09T04:57:39.378Z,1.70
2022-12-09T05:02:42.175Z,1.60
2022-12-09T05:07:45.083Z,1.70
2022-12-09T05:12:48.605Z,1.80
2022-12-09T05:17:51.273Z,1.80
2022-12-09T05:22:54.395Z,1.70
2022-12-09T05:27:56.885Z,1.70
2022-12-09T05:32:59.378Z,1.70
2022-12-09T05:38:02.319Z,1.70
2022-12-09T05:43:05.036Z,1.60
2022-12-09T05:48:07.977Z,1.70
2022-12-09T05:53:11.152Z,1.80
2022-12-09T05:58:13.737Z,1.80
2022-12-09T06:03:16.927Z,1.70
2022-12-09T06:08:19.718Z,1.80
2022-12-09T06:13:22.837Z,1.80
2022-12-09T06:18:25.579Z,1.70
2022-12-09T06:23:28.329Z,1.80
2022-12-09T06:28:31.457Z,1.70
2022-12-09T06:39:03.165Z,1.70
2022-12-09T06:44:19.870Z,1.60
2022-12-09T06:49:24.217Z,1.60
2022-12-09T06:54:27.328Z,1.50
2022-12-09T06:59:30.543Z,1.50
2022-12-09T07:04:33.274Z,1.50
2022-12-09T07:09:36.180Z,1.60
2022-12-09T07:14:39.376Z,1.60
2022-12-09T07:19:41.900Z,1.60
2022-12-09T07:24:45.181Z,1.60
2022-12-09T07:29:48.036Z,1.60
2022-12-09T07:34:51.026Z,1.60
2022-12-09T07:39:53.959Z,1.70
2022-12-09T07:44:56.525Z,1.60
2022-12-09T07:50:06.492Z,1.60
2022-12-09T07:55:10.705Z,1.60
2022-12-09T08:00:14.079Z,1.60
2022-12-09T08:05:17.441Z,1.70
2022-12-09T08:10:20.701Z,1.80
2022-12-09T08:15:23.808Z,1.80
2022-12-09T08:20:29.457Z,1.90
2022-12-09T08:25:32.329Z,1.80
2022-12-09T08:30:36.947Z,1.90
2022-12-09T08:35:39.841Z,1.90
2022-12-09T08:40:42.462Z,1.80
2022-12-09T08:45:45.192Z,1.80
2022-12-09T08:50:48.026Z,2.00
2022-12-09T08:55:50.913Z,1.90
2022-12-09T09:00:53.631Z,2.00
2022-12-09T09:06:09.524Z,2.00
2022-12-09T09:11:19.584Z,2.10
2022-12-09T09:16:24.787Z,2.20
2022-12-09T09:21:27.716Z,2.20
2022-12-09T09:26:30.338Z,2.30
2022-12-09T09:31:33.441Z,2.30
2022-12-09T09:36:36.200Z,2.50
2022-12-09T09:42:03.228Z,2.30
2022-12-09T09:47:38.531Z,2.30
2022-12-09T09:52:42.799Z,2.40
2022-12-09T09:57:55.650Z,2.60
2022-12-09T10:03:09.482Z,2.70
2022-12-09T10:08:32.276Z,2.70
2022-12-09T10:14:03.887Z,2.50
2022-12-09T10:19:31.962Z,2.50
2022-12-09T10:24:39.982Z,2.80
2022-12-09T10:30:22.461Z,2.80
2022-12-09T10:35:28.908Z,2.90
2022-12-09T10:40:38.854Z,3.00
2022-12-09T10:51:19.688Z,2.70
2022-12-09T10:56:34.281Z,2.60
2022-12-09T11:01:59.554Z,2.80
2022-12-09T11:07:26.137Z,3.00
2022-12-09T11:12:32.041Z,3.00
2022-12-09T11:17:37.574Z,3.00
2022-12-09T11:22:43.324Z,2.80
2022-12-09T11:27:48.922Z,2.80
2022-12-09T11:32:56.916Z,3.00
2022-12-09T11:38:03.769Z,2.90
2022-12-09T11:43:06.355Z,3.30
2022-12-09T11:48:36.009Z,3.00
2022-12-09T11:53:41.571Z,3.10
2022-12-09T11:59:01.024Z,3.20
2022-12-09T12:04:11.322Z,3.20
2022-12-09T12:09:22.671Z,3.10
2022-12-09T12:14:29.173Z,3.10
2022-12-09T12:19:39.991Z,3.00
2022-12-09T12:25:01.519Z,2.90
2022-12-09T12:30:06.880Z,2.90
2022-12-09T12:35:54.070Z,2.90
2022-12-09T12:41:08.378Z,2.90
2022-12-09T12:46:22.553Z,3.00
2022-12-09T12:51:29.449Z,3.00
2022-12-09T12:57:09.732Z,2.90
2022-12-09T13:02:33.927Z,2.90
2022-12-09T13:07:39.039Z,2.90
2022-12-09T13:13:01.585Z,3.10
2022-12-09T13:18:13.206Z,2.70
2022-12-09T13:23:43.291Z,2.60
2022-12-09T13:28:56.311Z,2.50
2022-12-09T13:34:07.549Z,2.50
2022-12-09T13:39:11.967Z,2.40
2022-12-09T13:44:18.949Z,2.30
2022-12-09T13:49:25.302Z,2.20
2022-12-09T13:54:29.232Z,2.20
2022-12-09T13:59:40.700Z,2.10
2022-12-09T14:04:58.740Z,2.10
2022-12-09T14:10:01.548Z,2.20
2022-12-09T14:15:25.071Z,2.00
2022-12-09T14:20:34.645Z,2.00
2022-12-09T14:25:37.229Z,1.90
2022-12-09T14:30:55.011Z,1.90
2022-12-09T14:36:03.116Z,1.90
2022-12-09T14:41:28.767Z,1.90
2022-12-09T14:46:36.910Z,1.90
2022-12-09T14:51:44.595Z,1.90
2022-12-09T14:56:50.497Z,1.90
2022-12-09T15:02:23.832Z,2.00
2022-12-09T15:07:32.745Z,1.70
2022-12-09T15:12:43.921Z,1.70
2022-12-09T15:17:54.649Z,1.70
2022-12-09T15:23:22.815Z,1.70
2022-12-09T15:28:27.426Z,1.70
2022-12-09T15:33:37.916Z,1.70
2022-12-09T15:38:54.894Z,1.60
2022-12-09T15:44:05.583Z,1.60
2022-12-09T15:49:11.427Z,1.70
2022-12-09T15:54:19.739Z,1.60
2022-12-09T15:59:29.201Z,2.00
2022-12-09T16:04:38.058Z,1.70
2022-12-09T16:09:41.254Z,1.60
2022-12-09T16:14:44.441Z,1.60
2022-12-09T16:19:46.899Z,1.60
2022-12-09T16:25:14.298Z,1.50
2022-12-09T16:30:23.649Z,1.40
2022-12-09T16:35:28.110Z,1.40
2022-12-09T16:40:32.602Z,1.40
2022-12-09T16:45:38.704Z,1.40
2022-12-09T16:51:04.628Z,1.30
2022-12-09T16:56:17.056Z,1.30
2022-12-09T17:01:22.696Z,1.30
2022-12-09T17:06:25.299Z,1.20
2022-12-09T17:11:27.693Z,1.20
2022-12-09T17:16:30.205Z,1.20
2022-12-09T17:21:32.819Z,1.10
2022-12-09T17:26:35.243Z,1.00
2022-12-09T17:31:38.006Z,1.00
2022-12-09T17:36:40.478Z,0.90
2022-12-09T17:41:43.430Z,0.90
2022-12-09T17:46:45.944Z,0.90
2022-12-09T17:51:48.350Z,0.80
2022-12-09T17:56:50.746Z,0.80
2022-12-09T18:01:53.134Z,0.70
2022-12-09T18:06:55.562Z,0.70
2022-12-09T18:11:58.016Z,0.60
2022-12-09T18:17:01.339Z,0.60
2022-12-09T18:22:03.817Z,0.50
2022-12-09T18:27:06.217Z,0.50
2022-12-09T18:32:09.602Z,0.40
2022-12-09T18:37:12.641Z,0.40
2022-12-09T18:42:15.062Z,0.50
2022-12-09T18:47:17.457Z,0.50
2022-12-09T18:52:19.841Z,0.50
2022-12-09T18:57:26.179Z,0.40
2022-12-09T19:02:31.478Z,0.40
2022-12-09T19:07:33.978Z,0.50
2022-12-09T19:12:47.020Z,0.50
2022-12-09T19:17:50.127Z,0.50
2022-12-09T19:22:52.785Z,0.50
2022-12-09T19:27:55.142Z,0.50
2022-12-09T19:32:58.078Z,0.60
2022-12-09T19:38:01.529Z,0.50
2022-12-09T19:43:04.136Z,0.50
2022-12-09T19:48:07.145Z,0.50
2022-12-09T19:53:09.571Z,0.60
2022-12-09T19:58:12.003Z,0.50
2022-12-09T20:03:14.356Z,0.60
2022-12-09T20:08:16.829Z,0.60
2022-12-09T20:13:19.914Z,0.60
2022-12-09T20:18:22.356Z,0.60
2022-12-09T20:23:24.737Z,0.60
2022-12-09T20:28:27.104Z,0.60
2022-12-09T20:33:29.778Z,0.60
2022-12-09T20:38:32.440Z,0.60
2022-12-09T20:43:39.450Z,0.60
2022-12-09T20:48:42.651Z,0.60
2022-12-09T20:53:46.838Z,0.60
2022-12-09T20:58:51.102Z,0.60
2022-12-09T21:03:54.846Z,0.60
2022-12-09T21:09:04.621Z,0.60
2022-12-09T21:14:07.896Z,0.70
2022-12-09T21:19:15.548Z,0.70
2022-12-09T21:24:18.931Z,0.60
2022-12-09T21:29:23.743Z,0.70
2022-12-09T21:34:30.249Z,0.70
2022-12-09T21:39:33.118Z,0.70
2022-12-09T21:44:35.642Z,0.70
2022-12-09T21:49:38.646Z,0.70
2022-12-09T21:54:41.040Z,0.70
2022-12-09T21:59:43.750Z,0.70
2022-12-09T22:04:46.137Z,0.70
2022-12-09T22:09:49.702Z,0.80
2022-12-09T22:14:52.169Z,0.70
2022-12-09T22:20:22.638Z,0.70
2022-12-09T22:25:17.000Z,0.70
2022-12-09T22:30:19.495Z,0.80
2022-12-09T22:35:22.242Z,0.80
2022-12-09T22:40:24.669Z,0.80
2022-12-09T22:45:26.987Z,0.80
2022-12-09T22:50:29.377Z,0.80
2022-12-09T22:55:33.921Z,0.80
2022-12-09T23:00:36.299Z,0.80
2022-12-09T23:05:38.648Z,0.90
2022-12-09T23:10:41.064Z,0.90
2022-12-09T23:15:43.494Z,0.90
2022-12-09T23:20:48.837Z,0.90
2022-12-09T23:25:51.260Z,0.90
2022-12-09T23:30:53.653Z,0.90
2022-12-09T23:35:56.325Z,0.90
2022-12-09T23:40:58.728Z,0.90
2022-12-09T23:46:02.617Z,0.90
2022-12-09T23:51:25.445Z,0.90
2022-12-09T23:56:29.812Z,1.00
